Terminal Aerodrome Forecast
Issued by NWS Melbourne, FL

Home | Current Version | Previous Version | Text Only | Print | Product List | Glossary On
Versions: 1 2 3 4 5 6 7 8 9 10 11 12 13 14 15 16
131
FTUS42 KMLB 240541
TAFVRB
TAF
KVRB 240541Z 2406/2506 22005KT P6SM FEW060 SCT250
     FM240900 22004KT P6SM FEW015 SCT060 BKN250
     FM241400 24008KT P6SM BKN025
     FM241700 25010KT P6SM VCTS SCT030CB BKN060
      TEMPO 2418/2420 3SM TSRA BKN025CB
     FM250000 26008KT P6SM SCT030 SCT060=

USA.gov is the U.S. government's official web portal to all federal, state and local government web resources and services.